sensor_id;sensor_type;location;lat;lon;timestamp;P1;durP1;ratioP1;P2;durP2;ratioP2
13303;SDS011;6720;51.958;4.540;2023-02-13T00:01:48;38.87;;;25.73;;
13303;SDS011;6720;51.958;4.540;2023-02-13T00:04:13;40.83;;;26.67;;
13303;SDS011;6720;51.958;4.540;2023-02-13T00:06:38;43.50;;;28.17;;
13303;SDS011;6720;51.958;4.540;2023-02-13T00:09:04;45.27;;;29.03;;
13303;SDS011;6720;51.958;4.540;2023-02-13T00:11:29;38.63;;;25.90;;
13303;SDS011;6720;51.958;4.540;2023-02-13T00:13:54;45.17;;;28.27;;
13303;SDS011;6720;51.958;4.540;2023-02-13T00:16:27;41.43;;;26.53;;
13303;SDS011;6720;51.958;4.540;2023-02-13T00:19:11;39.80;;;26.83;;
13303;SDS011;6720;51.958;4.540;2023-02-13T00:21:36;41.47;;;26.53;;
13303;SDS011;6720;51.958;4.540;2023-02-13T00:24:02;41.27;;;26.93;;
13303;SDS011;6720;51.958;4.540;2023-02-13T00:26:27;39.20;;;26.57;;
13303;SDS011;6720;51.958;4.540;2023-02-13T00:28:53;41.47;;;27.77;;
13303;SDS011;6720;51.958;4.540;2023-02-13T00:31:19;41.97;;;27.23;;
13303;SDS011;6720;51.958;4.540;2023-02-13T00:33:45;41.63;;;26.53;;
13303;SDS011;6720;51.958;4.540;2023-02-13T00:36:15;40.27;;;26.97;;
13303;SDS011;6720;51.958;4.540;2023-02-13T00:38:42;39.00;;;26.37;;
13303;SDS011;6720;51.958;4.540;2023-02-13T00:41:08;42.00;;;27.90;;
13303;SDS011;6720;51.958;4.540;2023-02-13T00:43:34;38.67;;;26.00;;
13303;SDS011;6720;51.958;4.540;2023-02-13T00:46:00;41.87;;;27.67;;
13303;SDS011;6720;51.958;4.540;2023-02-13T00:48:26;41.27;;;27.27;;
13303;SDS011;6720;51.958;4.540;2023-02-13T00:50:53;38.83;;;26.30;;
13303;SDS011;6720;51.958;4.540;2023-02-13T00:53:22;40.67;;;27.37;;
13303;SDS011;6720;51.958;4.540;2023-02-13T00:55:49;43.03;;;28.37;;
13303;SDS011;6720;51.958;4.540;2023-02-13T00:58:14;40.47;;;28.30;;
13303;SDS011;6720;51.958;4.540;2023-02-13T01:00:42;42.10;;;27.23;;
13303;SDS011;6720;51.958;4.540;2023-02-13T01:03:08;45.77;;;28.13;;
13303;SDS011;6720;51.958;4.540;2023-02-13T01:05:34;41.13;;;26.90;;
13303;SDS011;6720;51.958;4.540;2023-02-13T01:08:00;41.97;;;26.93;;
13303;SDS011;6720;51.958;4.540;2023-02-13T01:10:25;42.43;;;28.20;;
13303;SDS011;6720;51.958;4.540;2023-02-13T01:12:51;38.53;;;26.00;;
13303;SDS011;6720;51.958;4.540;2023-02-13T01:15:17;41.53;;;27.17;;
13303;SDS011;6720;51.958;4.540;2023-02-13T01:17:43;39.70;;;27.90;;
13303;SDS011;6720;51.958;4.540;2023-02-13T01:20:09;40.13;;;27.37;;
13303;SDS011;6720;51.958;4.540;2023-02-13T01:22:35;37.57;;;25.47;;
13303;SDS011;6720;51.958;4.540;2023-02-13T01:25:00;40.80;;;26.90;;
13303;SDS011;6720;51.958;4.540;2023-02-13T01:27:27;43.50;;;28.93;;
13303;SDS011;6720;51.958;4.540;2023-02-13T01:29:53;40.53;;;26.17;;
13303;SDS011;6720;51.958;4.540;2023-02-13T01:32:18;40.87;;;27.40;;
13303;SDS011;6720;51.958;4.540;2023-02-13T01:34:43;42.53;;;28.30;;
13303;SDS011;6720;51.958;4.540;2023-02-13T01:37:09;40.70;;;27.40;;
13303;SDS011;6720;51.958;4.540;2023-02-13T01:39:34;36.83;;;26.30;;
13303;SDS011;6720;51.958;4.540;2023-02-13T01:42:00;39.73;;;27.13;;
13303;SDS011;6720;51.958;4.540;2023-02-13T01:47:28;40.23;;;27.67;;
13303;SDS011;6720;51.958;4.540;2023-02-13T01:52:59;40.57;;;26.93;;
13303;SDS011;6720;51.958;4.540;2023-02-13T01:55:30;45.13;;;28.60;;
13303;SDS011;6720;51.958;4.540;2023-02-13T01:58:04;42.43;;;27.40;;
13303;SDS011;6720;51.958;4.540;2023-02-13T02:00:32;38.87;;;26.47;;
13303;SDS011;6720;51.958;4.540;2023-02-13T02:03:01;36.03;;;24.87;;
13303;SDS011;6720;51.958;4.540;2023-02-13T02:05:33;39.87;;;27.03;;
13303;SDS011;6720;51.958;4.540;2023-02-13T02:08:00;40.67;;;27.50;;
13303;SDS011;6720;51.958;4.540;2023-02-13T02:10:28;40.27;;;27.43;;
13303;SDS011;6720;51.958;4.540;2023-02-13T02:15:35;36.87;;;25.10;;
13303;SDS011;6720;51.958;4.540;2023-02-13T02:18:02;40.37;;;26.60;;
13303;SDS011;6720;51.958;4.540;2023-02-13T02:39:43;39.90;;;25.93;;
13303;SDS011;6720;51.958;4.540;2023-02-13T02:42:15;39.00;;;27.03;;
13303;SDS011;6720;51.958;4.540;2023-02-13T02:47:47;36.63;;;26.43;;
13303;SDS011;6720;51.958;4.540;2023-02-13T02:50:38;39.30;;;27.13;;
13303;SDS011;6720;51.958;4.540;2023-02-13T03:01:15;39.27;;;26.33;;
13303;SDS011;6720;51.958;4.540;2023-02-13T03:04:22;38.07;;;24.80;;
13303;SDS011;6720;51.958;4.540;2023-02-13T03:07:32;40.13;;;26.63;;
13303;SDS011;6720;51.958;4.540;2023-02-13T03:10:36;37.97;;;25.40;;
13303;SDS011;6720;51.958;4.540;2023-02-13T03:13:45;40.47;;;26.90;;
13303;SDS011;6720;51.958;4.540;2023-02-13T03:16:40;36.90;;;25.13;;
13303;SDS011;6720;51.958;4.540;2023-02-13T03:22:24;37.93;;;25.70;;
13303;SDS011;6720;51.958;4.540;2023-02-13T03:25:11;36.30;;;25.63;;
13303;SDS011;6720;51.958;4.540;2023-02-13T03:33:38;37.77;;;25.50;;
13303;SDS011;6720;51.958;4.540;2023-02-13T03:42:22;39.13;;;27.17;;
13303;SDS011;6720;51.958;4.540;2023-02-13T03:45:16;37.60;;;25.77;;
13303;SDS011;6720;51.958;4.540;2023-02-13T03:48:02;43.33;;;26.53;;
13303;SDS011;6720;51.958;4.540;2023-02-13T03:50:33;38.07;;;26.07;;
13303;SDS011;6720;51.958;4.540;2023-02-13T03:53:04;36.67;;;25.47;;
13303;SDS011;6720;51.958;4.540;2023-02-13T03:55:34;38.43;;;25.00;;
13303;SDS011;6720;51.958;4.540;2023-02-13T03:58:21;39.23;;;25.23;;
13303;SDS011;6720;51.958;4.540;2023-02-13T04:01:11;37.53;;;25.63;;
13303;SDS011;6720;51.958;4.540;2023-02-13T04:03:44;36.30;;;24.33;;
13303;SDS011;6720;51.958;4.540;2023-02-13T04:06:16;37.97;;;24.23;;
13303;SDS011;6720;51.958;4.540;2023-02-13T04:08:46;37.57;;;25.47;;
13303;SDS011;6720;51.958;4.540;2023-02-13T04:11:22;41.40;;;25.77;;
13303;SDS011;6720;51.958;4.540;2023-02-13T04:13:59;38.23;;;25.90;;
13303;SDS011;6720;51.958;4.540;2023-02-13T04:19:07;38.90;;;26.43;;
13303;SDS011;6720;51.958;4.540;2023-02-13T04:21:35;36.63;;;25.30;;
13303;SDS011;6720;51.958;4.540;2023-02-13T04:24:01;37.27;;;25.03;;
13303;SDS011;6720;51.958;4.540;2023-02-13T04:26:29;34.97;;;23.23;;
13303;SDS011;6720;51.958;4.540;2023-02-13T04:28:59;37.90;;;25.23;;
13303;SDS011;6720;51.958;4.540;2023-02-13T04:31:24;40.17;;;26.13;;
13303;SDS011;6720;51.958;4.540;2023-02-13T04:33:49;34.50;;;23.40;;
13303;SDS011;6720;51.958;4.540;2023-02-13T04:36:15;34.73;;;23.13;;
13303;SDS011;6720;51.958;4.540;2023-02-13T04:38:40;37.37;;;23.80;;
13303;SDS011;6720;51.958;4.540;2023-02-13T04:41:06;37.07;;;23.77;;
13303;SDS011;6720;51.958;4.540;2023-02-13T04:43:31;34.03;;;23.07;;
13303;SDS011;6720;51.958;4.540;2023-02-13T04:45:57;37.53;;;23.80;;
13303;SDS011;6720;51.958;4.540;2023-02-13T04:48:22;36.93;;;23.87;;
13303;SDS011;6720;51.958;4.540;2023-02-13T04:50:47;37.30;;;24.70;;
13303;SDS011;6720;51.958;4.540;2023-02-13T04:53:13;38.47;;;24.53;;
13303;SDS011;6720;51.958;4.540;2023-02-13T04:55:38;38.43;;;24.47;;
13303;SDS011;6720;51.958;4.540;2023-02-13T04:58:03;36.20;;;23.47;;
13303;SDS011;6720;51.958;4.540;2023-02-13T05:00:29;35.80;;;24.27;;
13303;SDS011;6720;51.958;4.540;2023-02-13T05:03:14;38.63;;;24.00;;
13303;SDS011;6720;51.958;4.540;2023-02-13T05:05:40;42.70;;;26.37;;
13303;SDS011;6720;51.958;4.540;2023-02-13T05:08:05;36.17;;;23.57;;
13303;SDS011;6720;51.958;4.540;2023-02-13T05:10:32;36.00;;;23.67;;
13303;SDS011;6720;51.958;4.540;2023-02-13T05:12:58;37.33;;;24.47;;
13303;SDS011;6720;51.958;4.540;2023-02-13T05:15:23;37.43;;;24.27;;
13303;SDS011;6720;51.958;4.540;2023-02-13T05:17:49;37.47;;;24.97;;
13303;SDS011;6720;51.958;4.540;2023-02-13T05:20:15;37.03;;;23.70;;
13303;SDS011;6720;51.958;4.540;2023-02-13T05:22:48;36.17;;;23.93;;
13303;SDS011;6720;51.958;4.540;2023-02-13T05:25:43;35.93;;;23.70;;
13303;SDS011;6720;51.958;4.540;2023-02-13T05:28:08;36.33;;;23.10;;
13303;SDS011;6720;51.958;4.540;2023-02-13T05:30:54;39.33;;;24.03;;
13303;SDS011;6720;51.958;4.540;2023-02-13T05:33:19;36.97;;;24.10;;
13303;SDS011;6720;51.958;4.540;2023-02-13T05:35:45;37.57;;;24.80;;
13303;SDS011;6720;51.958;4.540;2023-02-13T05:38:10;37.30;;;24.20;;
13303;SDS011;6720;51.958;4.540;2023-02-13T05:40:35;35.57;;;23.57;;
13303;SDS011;6720;51.958;4.540;2023-02-13T05:43:01;37.53;;;25.13;;
13303;SDS011;6720;51.958;4.540;2023-02-13T05:45:26;38.07;;;24.83;;
13303;SDS011;6720;51.958;4.540;2023-02-13T05:47:51;38.00;;;24.37;;
13303;SDS011;6720;51.958;4.540;2023-02-13T05:50:17;36.83;;;24.70;;
13303;SDS011;6720;51.958;4.540;2023-02-13T05:52:42;37.70;;;24.63;;
13303;SDS011;6720;51.958;4.540;2023-02-13T05:55:08;36.73;;;23.97;;
13303;SDS011;6720;51.958;4.540;2023-02-13T05:57:33;35.93;;;24.53;;
13303;SDS011;6720;51.958;4.540;2023-02-13T05:59:58;38.03;;;24.70;;
13303;SDS011;6720;51.958;4.540;2023-02-13T06:02:24;40.70;;;25.03;;
13303;SDS011;6720;51.958;4.540;2023-02-13T06:04:49;36.27;;;24.07;;
13303;SDS011;6720;51.958;4.540;2023-02-13T06:07:14;37.57;;;24.93;;
13303;SDS011;6720;51.958;4.540;2023-02-13T06:09:40;45.80;;;26.13;;
13303;SDS011;6720;51.958;4.540;2023-02-13T06:12:05;38.63;;;25.03;;
13303;SDS011;6720;51.958;4.540;2023-02-13T06:14:31;39.23;;;25.03;;
13303;SDS011;6720;51.958;4.540;2023-02-13T06:16:56;36.67;;;24.80;;
13303;SDS011;6720;51.958;4.540;2023-02-13T06:19:21;38.87;;;25.57;;
13303;SDS011;6720;51.958;4.540;2023-02-13T06:21:47;37.80;;;24.67;;
13303;SDS011;6720;51.958;4.540;2023-02-13T06:24:12;41.07;;;26.23;;
13303;SDS011;6720;51.958;4.540;2023-02-13T06:26:38;40.73;;;25.50;;
13303;SDS011;6720;51.958;4.540;2023-02-13T06:29:03;42.40;;;26.90;;
13303;SDS011;6720;51.958;4.540;2023-02-13T06:31:29;39.23;;;25.53;;
13303;SDS011;6720;51.958;4.540;2023-02-13T06:33:54;40.20;;;25.57;;
13303;SDS011;6720;51.958;4.540;2023-02-13T06:36:19;39.50;;;25.90;;
13303;SDS011;6720;51.958;4.540;2023-02-13T06:38:45;38.53;;;25.17;;
13303;SDS011;6720;51.958;4.540;2023-02-13T06:41:10;40.57;;;26.73;;
13303;SDS011;6720;51.958;4.540;2023-02-13T06:43:36;40.17;;;26.43;;
13303;SDS011;6720;51.958;4.540;2023-02-13T06:46:04;38.33;;;25.20;;
13303;SDS011;6720;51.958;4.540;2023-02-13T06:48:32;38.40;;;25.03;;
13303;SDS011;6720;51.958;4.540;2023-02-13T06:50:58;43.07;;;27.87;;
13303;SDS011;6720;51.958;4.540;2023-02-13T06:53:25;40.60;;;26.43;;
13303;SDS011;6720;51.958;4.540;2023-02-13T06:55:51;39.30;;;26.30;;
13303;SDS011;6720;51.958;4.540;2023-02-13T06:58:17;42.07;;;26.23;;
13303;SDS011;6720;51.958;4.540;2023-02-13T07:00:43;39.87;;;26.13;;
13303;SDS011;6720;51.958;4.540;2023-02-13T07:03:09;39.07;;;26.37;;
13303;SDS011;6720;51.958;4.540;2023-02-13T07:05:35;42.40;;;28.10;;
13303;SDS011;6720;51.958;4.540;2023-02-13T07:08:03;39.13;;;26.00;;
13303;SDS011;6720;51.958;4.540;2023-02-13T07:10:29;42.90;;;26.80;;
13303;SDS011;6720;51.958;4.540;2023-02-13T07:12:56;44.43;;;27.90;;
13303;SDS011;6720;51.958;4.540;2023-02-13T07:15:22;42.00;;;27.03;;
13303;SDS011;6720;51.958;4.540;2023-02-13T07:17:47;41.73;;;27.93;;
13303;SDS011;6720;51.958;4.540;2023-02-13T07:20:19;46.00;;;30.30;;
13303;SDS011;6720;51.958;4.540;2023-02-13T07:22:44;44.57;;;27.27;;
13303;SDS011;6720;51.958;4.540;2023-02-13T07:25:09;43.77;;;27.40;;
13303;SDS011;6720;51.958;4.540;2023-02-13T07:27:35;43.90;;;28.47;;
13303;SDS011;6720;51.958;4.540;2023-02-13T07:30:00;44.50;;;27.90;;
13303;SDS011;6720;51.958;4.540;2023-02-13T07:32:25;43.27;;;29.27;;
13303;SDS011;6720;51.958;4.540;2023-02-13T07:34:51;44.50;;;30.47;;
13303;SDS011;6720;51.958;4.540;2023-02-13T07:37:16;46.60;;;29.93;;
13303;SDS011;6720;51.958;4.540;2023-02-13T07:39:42;46.60;;;28.83;;
13303;SDS011;6720;51.958;4.540;2023-02-13T07:42:07;42.50;;;29.03;;
13303;SDS011;6720;51.958;4.540;2023-02-13T07:44:32;46.43;;;28.47;;
13303;SDS011;6720;51.958;4.540;2023-02-13T07:46:58;47.83;;;30.70;;
13303;SDS011;6720;51.958;4.540;2023-02-13T07:49:24;46.07;;;28.57;;
13303;SDS011;6720;51.958;4.540;2023-02-13T07:51:50;46.40;;;30.07;;
13303;SDS011;6720;51.958;4.540;2023-02-13T07:54:15;47.43;;;30.17;;
13303;SDS011;6720;51.958;4.540;2023-02-13T07:56:41;43.43;;;29.40;;
13303;SDS011;6720;51.958;4.540;2023-02-13T07:59:06;49.10;;;32.83;;
13303;SDS011;6720;51.958;4.540;2023-02-13T08:01:31;47.27;;;29.33;;
13303;SDS011;6720;51.958;4.540;2023-02-13T08:03:57;47.20;;;30.67;;
13303;SDS011;6720;51.958;4.540;2023-02-13T08:06:23;51.97;;;32.27;;
13303;SDS011;6720;51.958;4.540;2023-02-13T08:08:48;51.03;;;31.93;;
13303;SDS011;6720;51.958;4.540;2023-02-13T08:11:34;47.27;;;29.27;;
13303;SDS011;6720;51.958;4.540;2023-02-13T08:14:18;52.00;;;31.33;;
13303;SDS011;6720;51.958;4.540;2023-02-13T08:16:45;47.90;;;31.17;;
13303;SDS011;6720;51.958;4.540;2023-02-13T08:19:10;47.90;;;30.30;;
13303;SDS011;6720;51.958;4.540;2023-02-13T08:21:35;50.33;;;32.43;;
13303;SDS011;6720;51.958;4.540;2023-02-13T08:24:02;50.87;;;32.83;;
13303;SDS011;6720;51.958;4.540;2023-02-13T08:26:29;45.33;;;30.07;;
13303;SDS011;6720;51.958;4.540;2023-02-13T08:28:55;49.23;;;32.13;;
13303;SDS011;6720;51.958;4.540;2023-02-13T08:31:21;48.20;;;31.47;;
13303;SDS011;6720;51.958;4.540;2023-02-13T08:33:46;46.73;;;30.33;;
13303;SDS011;6720;51.958;4.540;2023-02-13T08:36:11;44.90;;;30.43;;
13303;SDS011;6720;51.958;4.540;2023-02-13T08:38:37;49.27;;;30.87;;
13303;SDS011;6720;51.958;4.540;2023-02-13T08:41:02;45.10;;;30.90;;
13303;SDS011;6720;51.958;4.540;2023-02-13T08:43:28;49.57;;;32.50;;
13303;SDS011;6720;51.958;4.540;2023-02-13T08:45:53;47.53;;;31.97;;
13303;SDS011;6720;51.958;4.540;2023-02-13T08:48:22;47.87;;;32.00;;
13303;SDS011;6720;51.958;4.540;2023-02-13T08:50:48;46.97;;;32.33;;
13303;SDS011;6720;51.958;4.540;2023-02-13T08:53:13;52.57;;;34.37;;
13303;SDS011;6720;51.958;4.540;2023-02-13T08:55:39;48.33;;;32.63;;
13303;SDS011;6720;51.958;4.540;2023-02-13T08:58:04;49.77;;;32.07;;
13303;SDS011;6720;51.958;4.540;2023-02-13T09:00:30;52.50;;;34.57;;
13303;SDS011;6720;51.958;4.540;2023-02-13T09:02:59;51.80;;;33.43;;
13303;SDS011;6720;51.958;4.540;2023-02-13T09:05:26;51.77;;;33.60;;
13303;SDS011;6720;51.958;4.540;2023-02-13T09:07:52;52.80;;;35.80;;
13303;SDS011;6720;51.958;4.540;2023-02-13T09:10:17;50.37;;;33.83;;
13303;SDS011;6720;51.958;4.540;2023-02-13T09:12:43;47.33;;;32.70;;
13303;SDS011;6720;51.958;4.540;2023-02-13T09:15:08;48.97;;;33.33;;
13303;SDS011;6720;51.958;4.540;2023-02-13T09:17:34;51.90;;;34.60;;
13303;SDS011;6720;51.958;4.540;2023-02-13T09:19:59;47.83;;;33.53;;
13303;SDS011;6720;51.958;4.540;2023-02-13T09:22:25;48.83;;;32.70;;
13303;SDS011;6720;51.958;4.540;2023-02-13T09:24:50;46.77;;;32.97;;
13303;SDS011;6720;51.958;4.540;2023-02-13T09:27:15;43.80;;;31.30;;
13303;SDS011;6720;51.958;4.540;2023-02-13T09:29:41;53.10;;;34.27;;
13303;SDS011;6720;51.958;4.540;2023-02-13T09:32:06;49.93;;;33.23;;
13303;SDS011;6720;51.958;4.540;2023-02-13T09:34:32;49.13;;;33.13;;
13303;SDS011;6720;51.958;4.540;2023-02-13T09:36:57;48.33;;;33.27;;
13303;SDS011;6720;51.958;4.540;2023-02-13T09:39:23;46.47;;;33.23;;
13303;SDS011;6720;51.958;4.540;2023-02-13T09:41:48;48.40;;;33.17;;
13303;SDS011;6720;51.958;4.540;2023-02-13T09:44:29;48.83;;;33.40;;
13303;SDS011;6720;51.958;4.540;2023-02-13T09:47:12;48.73;;;33.70;;
13303;SDS011;6720;51.958;4.540;2023-02-13T09:49:44;48.07;;;32.53;;
13303;SDS011;6720;51.958;4.540;2023-02-13T09:52:14;46.60;;;31.10;;
13303;SDS011;6720;51.958;4.540;2023-02-13T09:54:39;47.33;;;33.90;;
13303;SDS011;6720;51.958;4.540;2023-02-13T10:02:52;44.97;;;32.20;;
13303;SDS011;6720;51.958;4.540;2023-02-13T10:05:35;45.30;;;32.60;;
13303;SDS011;6720;51.958;4.540;2023-02-13T10:08:26;50.43;;;35.17;;
13303;SDS011;6720;51.958;4.540;2023-02-13T10:16:32;52.23;;;36.47;;
13303;SDS011;6720;51.958;4.540;2023-02-13T10:19:02;50.27;;;34.30;;
13303;SDS011;6720;51.958;4.540;2023-02-13T10:21:40;52.10;;;34.63;;
13303;SDS011;6720;51.958;4.540;2023-02-13T10:24:32;48.97;;;34.33;;
13303;SDS011;6720;51.958;4.540;2023-02-13T10:27:10;48.50;;;35.50;;
13303;SDS011;6720;51.958;4.540;2023-02-13T10:29:44;47.83;;;34.70;;
13303;SDS011;6720;51.958;4.540;2023-02-13T10:32:33;45.53;;;33.03;;
13303;SDS011;6720;51.958;4.540;2023-02-13T10:35:07;47.50;;;33.63;;
13303;SDS011;6720;51.958;4.540;2023-02-13T10:37:42;48.93;;;34.70;;
13303;SDS011;6720;51.958;4.540;2023-02-13T10:40:09;46.90;;;35.50;;
13303;SDS011;6720;51.958;4.540;2023-02-13T10:42:49;48.87;;;35.20;;
13303;SDS011;6720;51.958;4.540;2023-02-13T10:45:30;48.20;;;34.57;;
13303;SDS011;6720;51.958;4.540;2023-02-13T10:48:46;49.53;;;33.97;;
13303;SDS011;6720;51.958;4.540;2023-02-13T10:51:34;51.03;;;33.67;;
13303;SDS011;6720;51.958;4.540;2023-02-13T10:54:15;47.67;;;34.70;;
13303;SDS011;6720;51.958;4.540;2023-02-13T11:02:02;48.10;;;32.90;;
13303;SDS011;6720;51.958;4.540;2023-02-13T11:04:36;49.07;;;34.60;;
13303;SDS011;6720;51.958;4.540;2023-02-13T11:07:03;48.07;;;34.67;;
13303;SDS011;6720;51.958;4.540;2023-02-13T11:09:31;47.93;;;33.40;;
13303;SDS011;6720;51.958;4.540;2023-02-13T11:17:20;52.63;;;35.43;;
13303;SDS011;6720;51.958;4.540;2023-02-13T11:19:51;50.67;;;33.90;;
13303;SDS011;6720;51.958;4.540;2023-02-13T11:22:37;48.07;;;33.47;;
13303;SDS011;6720;51.958;4.540;2023-02-13T11:27:52;47.23;;;33.07;;
13303;SDS011;6720;51.958;4.540;2023-02-13T11:30:32;45.50;;;33.83;;
13303;SDS011;6720;51.958;4.540;2023-02-13T11:33:00;45.23;;;33.63;;
13303;SDS011;6720;51.958;4.540;2023-02-13T11:35:34;46.03;;;33.13;;
13303;SDS011;6720;51.958;4.540;2023-02-13T11:40:38;42.57;;;31.63;;
13303;SDS011;6720;51.958;4.540;2023-02-13T11:43:06;46.87;;;34.30;;
13303;SDS011;6720;51.958;4.540;2023-02-13T11:45:32;48.70;;;33.97;;
13303;SDS011;6720;51.958;4.540;2023-02-13T11:47:58;45.87;;;33.70;;
13303;SDS011;6720;51.958;4.540;2023-02-13T11:50:28;47.43;;;33.93;;
13303;SDS011;6720;51.958;4.540;2023-02-13T11:57:58;40.70;;;30.40;;
13303;SDS011;6720;51.958;4.540;2023-02-13T12:00:27;41.50;;;30.77;;
13303;SDS011;6720;51.958;4.540;2023-02-13T12:02:57;42.40;;;31.03;;
13303;SDS011;6720;51.958;4.540;2023-02-13T12:05:26;44.17;;;31.90;;
13303;SDS011;6720;51.958;4.540;2023-02-13T12:07:54;42.67;;;30.90;;
13303;SDS011;6720;51.958;4.540;2023-02-13T12:10:24;40.87;;;30.13;;
13303;SDS011;6720;51.958;4.540;2023-02-13T12:13:19;41.53;;;30.13;;
13303;SDS011;6720;51.958;4.540;2023-02-13T12:15:52;41.03;;;29.77;;
13303;SDS011;6720;51.958;4.540;2023-02-13T12:18:35;41.83;;;29.90;;
13303;SDS011;6720;51.958;4.540;2023-02-13T12:21:06;39.93;;;28.87;;
13303;SDS011;6720;51.958;4.540;2023-02-13T12:26:22;39.73;;;28.77;;
13303;SDS011;6720;51.958;4.540;2023-02-13T12:47:29;32.33;;;23.70;;
13303;SDS011;6720;51.958;4.540;2023-02-13T12:50:06;34.00;;;26.63;;
13303;SDS011;6720;51.958;4.540;2023-02-13T13:01:17;29.37;;;21.97;;
13303;SDS011;6720;51.958;4.540;2023-02-13T13:09:46;25.57;;;20.90;;
13303;SDS011;6720;51.958;4.540;2023-02-13T13:12:29;26.70;;;21.53;;
13303;SDS011;6720;51.958;4.540;2023-02-13T13:17:35;24.03;;;19.30;;
13303;SDS011;6720;51.958;4.540;2023-02-13T13:22:45;27.40;;;20.77;;
13303;SDS011;6720;51.958;4.540;2023-02-13T13:25:24;31.73;;;22.53;;
13303;SDS011;6720;51.958;4.540;2023-02-13T13:27:52;27.70;;;21.73;;
13303;SDS011;6720;51.958;4.540;2023-02-13T13:30:26;29.17;;;21.73;;
13303;SDS011;6720;51.958;4.540;2023-02-13T13:32:55;29.23;;;22.80;;
13303;SDS011;6720;51.958;4.540;2023-02-13T13:35:26;27.97;;;21.90;;
13303;SDS011;6720;51.958;4.540;2023-02-13T13:38:07;25.67;;;20.93;;
13303;SDS011;6720;51.958;4.540;2023-02-13T13:43:55;27.00;;;21.33;;
13303;SDS011;6720;51.958;4.540;2023-02-13T13:51:49;24.07;;;18.57;;
13303;SDS011;6720;51.958;4.540;2023-02-13T13:59:18;22.63;;;18.63;;
13303;SDS011;6720;51.958;4.540;2023-02-13T14:01:44;22.10;;;17.90;;
13303;SDS011;6720;51.958;4.540;2023-02-13T14:11:51;18.27;;;15.70;;
13303;SDS011;6720;51.958;4.540;2023-02-13T14:14:51;16.63;;;13.97;;
13303;SDS011;6720;51.958;4.540;2023-02-13T14:17:11;19.67;;;15.33;;
13303;SDS011;6720;51.958;4.540;2023-02-13T14:19:41;20.23;;;16.63;;
13303;SDS011;6720;51.958;4.540;2023-02-13T14:27:25;22.13;;;18.13;;
13303;SDS011;6720;51.958;4.540;2023-02-13T14:29:54;22.27;;;17.63;;
13303;SDS011;6720;51.958;4.540;2023-02-13T14:34:55;23.50;;;17.67;;
13303;SDS011;6720;51.958;4.540;2023-02-13T14:37:26;25.07;;;19.27;;
13303;SDS011;6720;51.958;4.540;2023-02-13T14:42:39;24.67;;;18.47;;
13303;SDS011;6720;51.958;4.540;2023-02-13T14:45:18;24.17;;;17.60;;
13303;SDS011;6720;51.958;4.540;2023-02-13T14:47:48;23.83;;;18.23;;
13303;SDS011;6720;51.958;4.540;2023-02-13T14:52:52;22.47;;;17.37;;
13303;SDS011;6720;51.958;4.540;2023-02-13T14:57:57;21.27;;;18.03;;
13303;SDS011;6720;51.958;4.540;2023-02-13T15:05:50;22.57;;;18.13;;
13303;SDS011;6720;51.958;4.540;2023-02-13T15:08:19;22.47;;;17.80;;
13303;SDS011;6720;51.958;4.540;2023-02-13T15:10:48;22.00;;;17.63;;
13303;SDS011;6720;51.958;4.540;2023-02-13T15:13:36;19.53;;;16.80;;
13303;SDS011;6720;51.958;4.540;2023-02-13T15:16:09;20.20;;;18.00;;
13303;SDS011;6720;51.958;4.540;2023-02-13T15:18:39;20.43;;;17.70;;
13303;SDS011;6720;51.958;4.540;2023-02-13T15:21:10;21.23;;;17.93;;
13303;SDS011;6720;51.958;4.540;2023-02-13T15:23:39;20.63;;;17.33;;
13303;SDS011;6720;51.958;4.540;2023-02-13T15:26:05;20.50;;;17.97;;
13303;SDS011;6720;51.958;4.540;2023-02-13T15:28:32;24.60;;;18.27;;
13303;SDS011;6720;51.958;4.540;2023-02-13T15:31:03;22.00;;;17.97;;
13303;SDS011;6720;51.958;4.540;2023-02-13T15:33:48;22.87;;;18.57;;
13303;SDS011;6720;51.958;4.540;2023-02-13T15:36:17;20.93;;;17.80;;
13303;SDS011;6720;51.958;4.540;2023-02-13T15:38:45;22.87;;;18.43;;
13303;SDS011;6720;51.958;4.540;2023-02-13T15:41:20;20.67;;;18.43;;
13303;SDS011;6720;51.958;4.540;2023-02-13T15:43:51;21.13;;;18.53;;
13303;SDS011;6720;51.958;4.540;2023-02-13T15:46:27;21.20;;;17.57;;
13303;SDS011;6720;51.958;4.540;2023-02-13T15:48:54;20.70;;;18.50;;
13303;SDS011;6720;51.958;4.540;2023-02-13T15:51:24;20.60;;;18.40;;
13303;SDS011;6720;51.958;4.540;2023-02-13T15:56:20;22.70;;;19.43;;
13303;SDS011;6720;51.958;4.540;2023-02-13T15:58:46;21.37;;;18.20;;
13303;SDS011;6720;51.958;4.540;2023-02-13T16:01:12;21.27;;;18.77;;
13303;SDS011;6720;51.958;4.540;2023-02-13T16:03:40;21.40;;;19.13;;
13303;SDS011;6720;51.958;4.540;2023-02-13T16:06:08;22.27;;;18.47;;
13303;SDS011;6720;51.958;4.540;2023-02-13T16:08:42;22.97;;;18.80;;
13303;SDS011;6720;51.958;4.540;2023-02-13T16:11:43;26.97;;;19.67;;
13303;SDS011;6720;51.958;4.540;2023-02-13T16:14:13;22.13;;;18.20;;
13303;SDS011;6720;51.958;4.540;2023-02-13T16:16:46;21.73;;;18.83;;
13303;SDS011;6720;51.958;4.540;2023-02-13T16:21:49;23.63;;;18.23;;
13303;SDS011;6720;51.958;4.540;2023-02-13T16:24:16;23.20;;;17.70;;
13303;SDS011;6720;51.958;4.540;2023-02-13T16:26:43;21.90;;;17.60;;
13303;SDS011;6720;51.958;4.540;2023-02-13T16:29:09;21.10;;;17.13;;
13303;SDS011;6720;51.958;4.540;2023-02-13T16:31:40;21.50;;;18.27;;
13303;SDS011;6720;51.958;4.540;2023-02-13T16:37:00;21.20;;;17.80;;
13303;SDS011;6720;51.958;4.540;2023-02-13T16:39:29;24.57;;;17.60;;
13303;SDS011;6720;51.958;4.540;2023-02-13T16:41:57;23.07;;;17.80;;
13303;SDS011;6720;51.958;4.540;2023-02-13T16:44:31;23.70;;;18.67;;
13303;SDS011;6720;51.958;4.540;2023-02-13T16:47:00;23.97;;;18.13;;
13303;SDS011;6720;51.958;4.540;2023-02-13T16:49:32;24.40;;;18.97;;
13303;SDS011;6720;51.958;4.540;2023-02-13T16:52:06;25.03;;;17.67;;
13303;SDS011;6720;51.958;4.540;2023-02-13T16:54:33;24.73;;;19.17;;
13303;SDS011;6720;51.958;4.540;2023-02-13T16:59:49;24.30;;;18.30;;
13303;SDS011;6720;51.958;4.540;2023-02-13T17:07:25;27.07;;;19.53;;
13303;SDS011;6720;51.958;4.540;2023-02-13T17:09:56;26.87;;;19.83;;
13303;SDS011;6720;51.958;4.540;2023-02-13T17:12:22;24.27;;;19.57;;
13303;SDS011;6720;51.958;4.540;2023-02-13T17:14:49;28.00;;;20.27;;
13303;SDS011;6720;51.958;4.540;2023-02-13T17:17:16;27.23;;;19.93;;
13303;SDS011;6720;51.958;4.540;2023-02-13T17:19:44;26.33;;;20.60;;
13303;SDS011;6720;51.958;4.540;2023-02-13T17:22:14;27.33;;;21.30;;
13303;SDS011;6720;51.958;4.540;2023-02-13T17:24:47;28.47;;;20.20;;
13303;SDS011;6720;51.958;4.540;2023-02-13T17:27:12;27.47;;;20.73;;
13303;SDS011;6720;51.958;4.540;2023-02-13T17:29:38;26.73;;;21.33;;
13303;SDS011;6720;51.958;4.540;2023-02-13T17:32:04;27.77;;;22.03;;
13303;SDS011;6720;51.958;4.540;2023-02-13T17:34:29;29.07;;;21.03;;
13303;SDS011;6720;51.958;4.540;2023-02-13T17:36:55;28.30;;;21.53;;
13303;SDS011;6720;51.958;4.540;2023-02-13T17:39:20;29.27;;;23.43;;
13303;SDS011;6720;51.958;4.540;2023-02-13T17:41:45;28.83;;;22.03;;
13303;SDS011;6720;51.958;4.540;2023-02-13T17:44:11;32.67;;;21.97;;
13303;SDS011;6720;51.958;4.540;2023-02-13T17:46:37;29.10;;;23.30;;
13303;SDS011;6720;51.958;4.540;2023-02-13T17:49:03;32.00;;;22.57;;
13303;SDS011;6720;51.958;4.540;2023-02-13T17:51:29;30.00;;;22.60;;
13303;SDS011;6720;51.958;4.540;2023-02-13T17:53:56;29.07;;;22.33;;
13303;SDS011;6720;51.958;4.540;2023-02-13T17:56:21;29.60;;;21.63;;
13303;SDS011;6720;51.958;4.540;2023-02-13T17:58:46;28.20;;;21.87;;